createdAt,value
2024-01-24T00:01:44.237Z,73.79
2024-01-24T00:04:12.341Z,73.81
2024-01-24T00:06:41.184Z,73.83
2024-01-24T00:09:10.042Z,73.90
2024-01-24T00:11:38.459Z,73.64
2024-01-24T00:14:06.947Z,73.63
2024-01-24T00:16:35.198Z,73.72
2024-01-24T00:19:03.970Z,73.92
2024-01-24T00:21:32.166Z,73.98
2024-01-24T00:24:00.464Z,74.04
2024-01-24T00:26:28.734Z,74.01
2024-01-24T00:28:57.117Z,74.16
2024-01-24T00:31:25.386Z,74.19
2024-01-24T00:33:54.088Z,74.11
2024-01-24T00:36:23.674Z,74.18
2024-01-24T00:38:52.138Z,74.32
2024-01-24T00:41:20.277Z,74.19
2024-01-24T00:43:48.392Z,74.27
2024-01-24T00:46:16.336Z,74.33
2024-01-24T00:48:44.537Z,74.28
2024-01-24T00:51:13.227Z,74.34
2024-01-24T00:53:41.683Z,74.30
2024-01-24T00:56:09.874Z,74.30
2024-01-24T00:58:38.676Z,74.22
2024-01-24T01:01:06.785Z,74.16
2024-01-24T01:03:34.747Z,74.12
2024-01-24T01:06:02.748Z,74.03
2024-01-24T01:08:30.780Z,73.99
2024-01-24T01:10:59.021Z,73.88
2024-01-24T01:13:26.952Z,73.80
2024-01-24T01:15:54.957Z,73.73
2024-01-24T01:18:23.325Z,73.82
2024-01-24T01:20:51.577Z,73.64
2024-01-24T01:23:19.822Z,73.83
2024-01-24T01:25:47.814Z,73.75
2024-01-24T01:28:16.112Z,73.72
2024-01-24T01:30:44.473Z,73.53
2024-01-24T01:33:12.570Z,73.68
2024-01-24T01:35:40.757Z,73.66
2024-01-24T01:38:08.828Z,73.62
2024-01-24T01:40:37.040Z,73.69
2024-01-24T01:43:12.884Z,73.83
2024-01-24T01:45:41.908Z,73.84
2024-01-24T01:48:12.296Z,73.84
2024-01-24T01:50:41.169Z,73.78
2024-01-24T01:53:09.608Z,73.72
2024-01-24T01:55:38.190Z,73.84
2024-01-24T01:58:06.210Z,73.70
2024-01-24T02:00:34.478Z,73.72
2024-01-24T02:03:02.622Z,73.81
2024-01-24T02:05:31.128Z,73.83
2024-01-24T02:07:59.490Z,73.84
2024-01-24T02:10:27.660Z,73.84
2024-01-24T02:12:55.694Z,73.97
2024-01-24T02:15:23.910Z,73.92
2024-01-24T02:17:51.834Z,73.84
2024-01-24T02:20:21.064Z,73.99
2024-01-24T02:22:49.435Z,73.91
2024-01-24T02:25:17.523Z,73.76
2024-01-24T02:27:47.733Z,73.89
2024-01-24T02:30:16.296Z,73.86
2024-01-24T02:32:44.574Z,73.94
2024-01-24T02:35:12.673Z,74.00
2024-01-24T02:37:40.794Z,74.07
2024-01-24T02:40:09.444Z,74.10
2024-01-24T02:42:37.444Z,74.06
2024-01-24T02:45:07.396Z,74.17
2024-01-24T02:47:35.728Z,74.18
2024-01-24T02:50:05.394Z,74.28
2024-01-24T02:52:33.496Z,74.27
2024-01-24T02:55:01.557Z,74.28
2024-01-24T02:57:29.784Z,74.55
2024-01-24T02:59:58.105Z,74.73
2024-01-24T03:02:26.091Z,74.79
2024-01-24T03:04:54.314Z,75.03
2024-01-24T03:07:22.311Z,75.07
2024-01-24T03:09:50.533Z,75.19
2024-01-24T03:12:18.689Z,75.30
2024-01-24T03:14:46.576Z,75.40
2024-01-24T03:17:14.617Z,75.38
2024-01-24T03:19:43.858Z,75.39
2024-01-24T03:22:12.563Z,75.44
2024-01-24T03:24:40.625Z,75.52
2024-01-24T03:27:08.503Z,75.49
2024-01-24T03:29:36.514Z,75.57
2024-01-24T03:32:04.939Z,75.62
2024-01-24T03:34:33.141Z,75.80
2024-01-24T03:37:01.260Z,75.80
2024-01-24T03:39:29.753Z,75.79
2024-01-24T03:41:57.779Z,75.78
2024-01-24T03:44:25.744Z,75.88
2024-01-24T03:46:53.939Z,75.88
2024-01-24T03:49:22.938Z,76.00
2024-01-24T03:51:51.202Z,76.17
2024-01-24T03:54:19.698Z,76.47
2024-01-24T03:56:47.880Z,76.46
2024-01-24T03:59:16.212Z,76.52
2024-01-24T04:01:44.221Z,76.58
2024-01-24T04:04:12.429Z,76.62
2024-01-24T04:06:40.640Z,76.63
2024-01-24T04:09:09.222Z,76.61
2024-01-24T04:11:39.196Z,76.61
2024-01-24T04:14:09.052Z,76.90
2024-01-24T04:16:40.535Z,77.04
2024-01-24T04:19:09.213Z,77.23
2024-01-24T04:21:46.362Z,77.24
2024-01-24T04:24:14.754Z,77.43
2024-01-24T04:26:43.642Z,77.43
2024-01-24T04:29:13.741Z,77.46
2024-01-24T04:31:43.379Z,77.56
2024-01-24T04:34:11.825Z,77.52
2024-01-24T04:36:39.917Z,77.70
2024-01-24T04:39:08.156Z,77.85
2024-01-24T04:41:40.140Z,78.24
2024-01-24T04:44:09.399Z,78.57
2024-01-24T04:46:37.403Z,78.71
2024-01-24T04:49:05.727Z,78.93
2024-01-24T04:51:33.954Z,78.94
2024-01-24T04:54:02.216Z,78.81
2024-01-24T04:56:30.169Z,78.87
2024-01-24T04:58:58.184Z,78.98
2024-01-24T05:01:26.384Z,78.97
2024-01-24T05:03:54.696Z,78.97
2024-01-24T05:06:22.883Z,78.93
2024-01-24T05:08:52.399Z,78.94
2024-01-24T05:11:20.878Z,78.92
2024-01-24T05:13:49.565Z,78.88
2024-01-24T05:16:17.535Z,78.80
2024-01-24T05:18:45.842Z,78.68
2024-01-24T05:21:14.501Z,78.51
2024-01-24T05:23:43.778Z,78.40
2024-01-24T05:26:12.060Z,78.29
2024-01-24T05:28:41.712Z,78.19
2024-01-24T05:31:10.165Z,77.94
2024-01-24T05:33:38.463Z,77.69
2024-01-24T05:36:07.038Z,77.49
2024-01-24T05:38:35.246Z,77.48
2024-01-24T05:41:03.720Z,77.37
2024-01-24T05:43:31.846Z,77.18
2024-01-24T05:46:00.251Z,77.10
2024-01-24T05:48:28.561Z,77.07
2024-01-24T05:50:56.765Z,77.09
2024-01-24T05:53:24.704Z,77.00
2024-01-24T05:55:52.863Z,76.73
2024-01-24T05:58:21.105Z,76.75
2024-01-24T06:00:49.401Z,76.68
2024-01-24T06:03:17.597Z,76.51
2024-01-24T06:05:46.090Z,76.68
2024-01-24T06:08:14.733Z,76.82
2024-01-24T06:10:42.886Z,76.97
2024-01-24T06:13:11.416Z,76.96
2024-01-24T06:15:39.585Z,76.99
2024-01-24T06:18:07.975Z,77.17
2024-01-24T06:20:35.831Z,77.64
2024-01-24T06:23:03.919Z,78.30
2024-01-24T06:25:32.419Z,78.90
2024-01-24T06:28:00.548Z,79.58
2024-01-24T06:30:30.901Z,80.07
2024-01-24T06:33:00.103Z,80.62
2024-01-24T06:35:28.116Z,80.79
2024-01-24T06:37:56.493Z,81.39
2024-01-24T06:40:24.745Z,81.79
2024-01-24T06:42:52.973Z,82.00
2024-01-24T06:45:21.752Z,82.34
2024-01-24T06:47:50.380Z,82.64
2024-01-24T06:50:19.957Z,82.77
2024-01-24T06:52:48.166Z,83.00
2024-01-24T06:55:18.332Z,83.19
2024-01-24T06:57:46.628Z,83.36
2024-01-24T07:00:15.101Z,83.44
2024-01-24T07:02:43.382Z,83.49
2024-01-24T07:05:11.760Z,83.72
2024-01-24T07:07:39.985Z,83.90
2024-01-24T07:10:13.415Z,84.10
2024-01-24T07:12:47.072Z,84.11
2024-01-24T07:15:17.976Z,84.21
2024-01-24T07:17:46.936Z,84.13
2024-01-24T07:20:17.196Z,83.87
2024-01-24T07:22:45.898Z,83.97
2024-01-24T07:25:13.971Z,83.89
2024-01-24T07:27:42.206Z,83.78
2024-01-24T07:30:10.571Z,83.73
2024-01-24T07:32:42.010Z,83.59
2024-01-24T07:35:10.607Z,83.56
2024-01-24T07:37:38.765Z,83.62
2024-01-24T07:40:15.865Z,83.64
2024-01-24T07:42:44.087Z,83.42
2024-01-24T07:45:12.149Z,83.31
2024-01-24T07:47:40.365Z,83.26
2024-01-24T07:50:09.161Z,82.94
2024-01-24T07:52:41.474Z,82.49
2024-01-24T07:55:12.287Z,82.12
2024-01-24T07:57:42.265Z,81.94
2024-01-24T08:00:17.956Z,81.37
2024-01-24T08:02:49.043Z,80.68
2024-01-24T08:05:20.972Z,80.31
2024-01-24T08:07:49.438Z,79.97
2024-01-24T08:10:18.699Z,79.33
2024-01-24T08:12:47.157Z,79.01
2024-01-24T08:15:15.832Z,78.80
2024-01-24T08:17:44.760Z,78.51
2024-01-24T08:20:13.187Z,78.39
2024-01-24T08:22:41.048Z,78.38
2024-01-24T08:25:09.544Z,78.42
2024-01-24T08:27:37.823Z,78.77
2024-01-24T08:30:07.496Z,78.98
2024-01-24T08:32:41.488Z,79.29
2024-01-24T08:35:10.166Z,79.62
2024-01-24T08:37:38.883Z,79.62
2024-01-24T08:40:09.896Z,79.75
2024-01-24T08:42:39.220Z,79.90
2024-01-24T08:45:07.590Z,79.97
2024-01-24T08:47:35.663Z,79.84
2024-01-24T08:50:05.550Z,79.72
2024-01-24T08:52:34.650Z,79.45
2024-01-24T08:55:03.786Z,79.04
2024-01-24T08:57:32.236Z,79.19
2024-01-24T09:00:00.389Z,79.36
2024-01-24T09:02:29.181Z,79.18
2024-01-24T09:04:57.470Z,79.07
2024-01-24T09:07:25.673Z,79.20
2024-01-24T09:09:54.114Z,79.06
2024-01-24T09:12:23.073Z,79.16
2024-01-24T09:14:51.447Z,79.31
2024-01-24T09:17:20.351Z,79.26
2024-01-24T09:19:49.409Z,79.33
2024-01-24T09:22:18.168Z,79.47
2024-01-24T09:24:46.565Z,79.76
2024-01-24T09:27:18.305Z,80.06
2024-01-24T09:29:46.245Z,80.55
2024-01-24T09:32:14.210Z,80.78
2024-01-24T09:34:44.527Z,80.89
2024-01-24T09:37:13.051Z,81.34
2024-01-24T09:39:41.052Z,81.60
2024-01-24T09:42:21.781Z,81.70
2024-01-24T09:44:50.922Z,81.54
2024-01-24T09:47:22.345Z,81.41
2024-01-24T09:49:51.472Z,81.38
2024-01-24T09:52:25.280Z,81.47
2024-01-24T09:55:02.208Z,81.59
2024-01-24T09:57:30.388Z,81.72
2024-01-24T09:59:58.630Z,81.78
2024-01-24T10:02:29.977Z,81.51
2024-01-24T10:05:00.550Z,81.50
2024-01-24T10:07:29.728Z,81.66
2024-01-24T10:10:09.328Z,81.69
2024-01-24T10:12:38.104Z,81.81
2024-01-24T10:15:06.925Z,81.85
2024-01-24T10:17:35.374Z,81.84
2024-01-24T10:20:07.858Z,81.96
2024-01-24T10:22:36.043Z,82.10
2024-01-24T10:25:04.401Z,82.22
2024-01-24T10:27:34.859Z,82.47
2024-01-24T10:30:03.915Z,82.52
2024-01-24T10:32:32.779Z,82.40
2024-01-24T10:35:05.161Z,83.81
2024-01-24T10:37:34.454Z,82.81
2024-01-24T10:40:13.158Z,82.59
2024-01-24T10:42:44.548Z,82.72
2024-01-24T10:45:16.600Z,83.03
2024-01-24T10:47:46.505Z,83.26
2024-01-24T10:50:16.167Z,83.39
2024-01-24T10:52:45.258Z,83.49
2024-01-24T10:55:14.948Z,83.41
2024-01-24T10:57:44.090Z,83.52
2024-01-24T11:00:18.212Z,83.46
2024-01-24T11:02:46.289Z,83.38
2024-01-24T11:05:22.838Z,83.61
2024-01-24T11:08:07.086Z,83.62
2024-01-24T11:10:40.169Z,83.58
2024-01-24T11:13:08.420Z,83.56
2024-01-24T11:15:36.927Z,83.76
2024-01-24T11:18:32.291Z,83.79
2024-01-24T11:21:01.447Z,83.75
2024-01-24T11:23:46.671Z,83.65
2024-01-24T11:26:17.762Z,83.64
2024-01-24T11:28:49.024Z,83.65
2024-01-24T11:31:38.138Z,83.80
2024-01-24T11:34:14.208Z,83.68
2024-01-24T11:36:51.897Z,83.75
2024-01-24T11:39:33.294Z,83.86
2024-01-24T11:42:27.353Z,83.90
2024-01-24T11:44:56.203Z,83.94
2024-01-24T11:47:24.869Z,83.93
2024-01-24T11:49:53.480Z,83.74
2024-01-24T11:52:22.672Z,83.53
2024-01-24T11:54:54.855Z,83.70
2024-01-24T11:57:23.346Z,83.72
2024-01-24T11:59:51.843Z,83.59
2024-01-24T12:02:20.542Z,83.40
2024-01-24T12:04:54.739Z,83.50
2024-01-24T12:07:22.817Z,83.54
2024-01-24T12:09:51.675Z,83.43
2024-01-24T12:12:20.659Z,83.45
2024-01-24T12:14:49.213Z,83.24
2024-01-24T12:17:18.091Z,83.11
2024-01-24T12:19:46.840Z,82.99
2024-01-24T12:22:16.799Z,82.80
2024-01-24T12:24:45.239Z,83.88
2024-01-24T12:27:13.411Z,83.65
2024-01-24T12:29:43.488Z,82.12
2024-01-24T12:32:11.750Z,81.48
2024-01-24T12:34:40.242Z,81.20
2024-01-24T12:37:08.707Z,80.94
2024-01-24T12:39:37.015Z,80.72
2024-01-24T12:42:05.684Z,80.37
2024-01-24T12:44:35.835Z,80.36
2024-01-24T12:47:05.152Z,80.15
2024-01-24T12:49:33.301Z,79.92
2024-01-24T12:52:02.821Z,79.91
2024-01-24T12:54:31.672Z,79.83
2024-01-24T12:56:59.820Z,79.52
2024-01-24T12:59:30.289Z,79.25
2024-01-24T13:01:59.135Z,79.03
2024-01-24T13:04:27.394Z,78.69
2024-01-24T13:06:56.368Z,78.41
2024-01-24T13:09:24.825Z,78.25
2024-01-24T13:11:53.204Z,77.90
2024-01-24T13:14:21.212Z,77.69
2024-01-24T13:16:50.133Z,77.42
2024-01-24T13:19:18.932Z,76.99
2024-01-24T13:21:47.003Z,76.74
2024-01-24T13:24:15.801Z,76.60
2024-01-24T13:26:45.297Z,76.68
2024-01-24T13:29:13.700Z,76.50
2024-01-24T13:31:42.679Z,76.34
2024-01-24T13:34:12.330Z,76.21
2024-01-24T13:36:41.819Z,76.23
2024-01-24T13:39:13.568Z,76.16
2024-01-24T13:41:45.303Z,75.98
2024-01-24T13:44:14.396Z,75.54
2024-01-24T13:46:42.836Z,75.49
2024-01-24T13:49:11.387Z,75.57
2024-01-24T13:51:43.328Z,75.15
2024-01-24T13:54:13.313Z,74.92
2024-01-24T13:56:41.532Z,74.71
2024-01-24T13:59:10.927Z,74.01
2024-01-24T14:01:45.256Z,73.90
2024-01-24T14:04:16.741Z,73.83
2024-01-24T14:06:45.401Z,73.83
2024-01-24T14:09:14.705Z,73.81
2024-01-24T14:11:43.293Z,73.68
2024-01-24T14:14:12.265Z,72.99
2024-01-24T14:16:40.285Z,73.04
2024-01-24T14:19:09.146Z,72.85
2024-01-24T14:21:37.496Z,72.91
2024-01-24T14:24:05.706Z,72.82
2024-01-24T14:26:34.336Z,72.61
2024-01-24T14:29:02.386Z,72.89
2024-01-24T14:31:32.135Z,73.24
2024-01-24T14:34:02.171Z,73.88
2024-01-24T14:36:34.935Z,74.33
2024-01-24T14:39:05.786Z,74.70
2024-01-24T14:41:33.724Z,75.01
2024-01-24T14:44:01.662Z,75.38
2024-01-24T14:46:29.545Z,75.57
2024-01-24T14:48:58.216Z,75.86
2024-01-24T14:51:26.448Z,76.14
2024-01-24T14:53:54.651Z,76.14
2024-01-24T14:56:22.632Z,76.14
2024-01-24T14:58:51.067Z,76.11
2024-01-24T15:01:20.553Z,76.05
2024-01-24T15:03:50.066Z,75.88
2024-01-24T15:06:19.100Z,75.89
2024-01-24T15:08:46.970Z,75.80
2024-01-24T15:11:15.090Z,75.48
2024-01-24T15:13:43.101Z,75.27
2024-01-24T15:16:11.472Z,74.92
2024-01-24T15:18:42.374Z,74.86
2024-01-24T15:21:13.532Z,74.69
2024-01-24T15:23:42.694Z,74.64
2024-01-24T15:26:11.559Z,74.81
2024-01-24T15:28:40.682Z,75.07
2024-01-24T15:31:09.174Z,75.35
2024-01-24T15:33:37.565Z,75.47
2024-01-24T15:36:06.241Z,75.60
2024-01-24T15:38:34.665Z,75.60
2024-01-24T15:41:05.011Z,75.33
2024-01-24T15:43:38.612Z,75.32
2024-01-24T15:46:08.191Z,75.31
2024-01-24T15:48:36.489Z,77.59
2024-01-24T15:51:05.858Z,76.19
2024-01-24T15:53:34.971Z,75.03
2024-01-24T15:56:03.591Z,74.67
2024-01-24T15:58:31.824Z,74.52
2024-01-24T16:01:00.026Z,74.47
2024-01-24T16:03:33.622Z,74.55
2024-01-24T16:06:02.973Z,74.45
2024-01-24T16:08:31.246Z,74.64
2024-01-24T16:11:00.901Z,74.68
2024-01-24T16:13:29.257Z,74.90
2024-01-24T16:15:57.570Z,75.15
2024-01-24T16:18:25.803Z,75.58
2024-01-24T16:20:53.802Z,75.88
2024-01-24T16:23:21.698Z,76.02
2024-01-24T16:25:51.014Z,76.09
2024-01-24T16:28:19.133Z,76.41
2024-01-24T16:30:48.007Z,76.71
2024-01-24T16:33:16.053Z,77.50
2024-01-24T16:35:44.339Z,78.07
2024-01-24T16:38:12.721Z,78.53
2024-01-24T16:40:40.904Z,78.46
2024-01-24T16:43:09.079Z,78.53
2024-01-24T16:45:37.411Z,78.96
2024-01-24T16:48:05.913Z,79.28
2024-01-24T16:50:34.067Z,79.25
2024-01-24T16:53:02.344Z,79.42
2024-01-24T16:55:31.727Z,79.65
2024-01-24T16:58:00.089Z,79.85
2024-01-24T17:00:28.288Z,79.79
2024-01-24T17:02:58.587Z,79.83
2024-01-24T17:05:27.230Z,79.80
2024-01-24T17:07:55.102Z,79.75
2024-01-24T17:10:23.151Z,79.86
2024-01-24T17:12:51.387Z,80.01
2024-01-24T17:15:19.847Z,80.38
2024-01-24T17:17:48.136Z,80.46
2024-01-24T17:20:16.407Z,80.10
2024-01-24T17:22:44.392Z,79.98
2024-01-24T17:25:14.473Z,79.72
2024-01-24T17:27:42.601Z,79.63
2024-01-24T17:30:11.867Z,79.54
2024-01-24T17:32:39.975Z,79.38
2024-01-24T17:35:08.224Z,79.30
2024-01-24T17:37:36.658Z,79.18
2024-01-24T17:40:06.028Z,79.19
2024-01-24T17:42:34.069Z,79.16
2024-01-24T17:45:02.357Z,78.85
2024-01-24T17:47:31.576Z,78.48
2024-01-24T17:50:01.717Z,78.57
2024-01-24T17:52:30.014Z,78.47
2024-01-24T17:55:01.898Z,78.44
2024-01-24T17:57:31.133Z,78.28
2024-01-24T18:00:03.562Z,78.37
2024-01-24T18:02:33.545Z,78.34
2024-01-24T18:05:02.379Z,77.92
2024-01-24T18:07:31.601Z,77.39
2024-01-24T18:10:03.527Z,77.84
2024-01-24T18:12:32.524Z,78.12
2024-01-24T18:15:00.695Z,78.21
2024-01-24T18:17:29.070Z,78.28
2024-01-24T18:19:57.283Z,78.32
2024-01-24T18:22:25.363Z,78.08
2024-01-24T18:24:53.535Z,77.87
2024-01-24T18:27:21.458Z,77.74
2024-01-24T18:29:53.550Z,77.55
2024-01-24T18:32:21.856Z,77.46
2024-01-24T18:34:50.713Z,77.43
2024-01-24T18:37:19.433Z,77.53
2024-01-24T18:39:48.977Z,77.17
2024-01-24T18:42:17.027Z,77.09
2024-01-24T18:44:44.995Z,77.15
2024-01-24T18:47:13.302Z,76.81
2024-01-24T18:49:41.535Z,76.73
2024-01-24T18:52:09.567Z,76.64
2024-01-24T18:54:37.940Z,77.38
2024-01-24T18:57:06.431Z,77.22
2024-01-24T18:59:34.546Z,76.69
2024-01-24T19:02:02.822Z,76.49
2024-01-24T19:04:31.157Z,76.16
2024-01-24T19:06:59.614Z,76.30
2024-01-24T19:09:27.836Z,75.93
2024-01-24T19:11:57.492Z,75.78
2024-01-24T19:14:25.945Z,75.78
2024-01-24T19:16:54.216Z,75.43
2024-01-24T19:19:24.525Z,75.45
2024-01-24T19:21:54.544Z,75.28
2024-01-24T19:24:22.700Z,74.47
2024-01-24T19:26:50.621Z,73.93
2024-01-24T19:29:19.875Z,73.63
2024-01-24T19:31:49.670Z,73.63
2024-01-24T19:34:22.414Z,74.02
2024-01-24T19:36:51.728Z,73.96
2024-01-24T19:39:19.648Z,73.83
2024-01-24T19:41:48.048Z,74.07
2024-01-24T19:44:18.228Z,74.44
2024-01-24T19:46:46.330Z,74.71
2024-01-24T19:49:15.122Z,74.73
2024-01-24T19:51:43.150Z,74.96
2024-01-24T19:54:12.566Z,75.20
2024-01-24T19:56:40.818Z,75.20
2024-01-24T19:59:08.752Z,75.14
2024-01-24T20:01:37.349Z,75.33
2024-01-24T20:04:05.944Z,75.45
2024-01-24T20:06:38.283Z,75.72
2024-01-24T20:09:06.341Z,75.45
2024-01-24T20:11:34.335Z,75.61
2024-01-24T20:14:04.652Z,75.70
2024-01-24T20:16:32.800Z,75.90
2024-01-24T20:19:00.927Z,76.29
2024-01-24T20:21:30.107Z,76.68
2024-01-24T20:23:58.652Z,76.73
2024-01-24T20:26:27.008Z,76.78
2024-01-24T20:28:55.287Z,77.15
2024-01-24T20:31:23.214Z,77.25
2024-01-24T20:33:51.712Z,77.52
2024-01-24T20:36:22.043Z,77.73
2024-01-24T20:38:50.184Z,77.86
2024-01-24T20:41:19.587Z,77.84
2024-01-24T20:43:47.904Z,78.07
2024-01-24T20:46:16.227Z,78.22
2024-01-24T20:48:44.652Z,78.53
2024-01-24T20:51:12.751Z,78.72
2024-01-24T20:53:41.083Z,78.84
2024-01-24T20:56:08.984Z,79.02
2024-01-24T20:58:37.346Z,79.04
2024-01-24T21:01:06.014Z,79.06
2024-01-24T21:03:34.616Z,79.22
2024-01-24T21:06:02.991Z,79.27
2024-01-24T21:08:31.441Z,79.43
2024-01-24T21:11:03.397Z,79.35
2024-01-24T21:13:32.439Z,79.46
2024-01-24T21:16:02.182Z,79.46
2024-01-24T21:18:30.949Z,79.36
2024-01-24T21:20:59.525Z,79.42
2024-01-24T21:23:27.566Z,79.25
2024-01-24T21:25:55.769Z,79.19
2024-01-24T21:28:23.596Z,79.24
2024-01-24T21:30:51.955Z,79.48
2024-01-24T21:33:20.060Z,79.44
2024-01-24T21:35:48.006Z,79.44
2024-01-24T21:38:16.568Z,79.36
2024-01-24T21:40:44.720Z,79.29
2024-01-24T21:43:12.856Z,79.18
2024-01-24T21:45:40.986Z,79.06
2024-01-24T21:48:09.325Z,79.05
2024-01-24T21:50:37.214Z,78.92
2024-01-24T21:53:05.582Z,78.78
2024-01-24T21:55:33.641Z,78.74
2024-01-24T21:58:01.701Z,78.75
2024-01-24T22:00:30.881Z,78.78
2024-01-24T22:02:59.171Z,78.71
2024-01-24T22:05:27.245Z,78.81
2024-01-24T22:07:56.311Z,78.74
2024-01-24T22:10:24.603Z,78.58
2024-01-24T22:12:52.889Z,78.56
2024-01-24T22:15:21.029Z,78.56
2024-01-24T22:17:49.352Z,78.63
2024-01-24T22:20:17.819Z,78.60
2024-01-24T22:22:45.967Z,78.66
2024-01-24T22:25:14.002Z,78.72
2024-01-24T22:27:42.157Z,78.63
2024-01-24T22:30:10.859Z,78.55
2024-01-24T22:32:39.331Z,78.35
2024-01-24T22:35:07.924Z,78.26
2024-01-24T22:37:36.192Z,78.12
2024-01-24T22:40:06.052Z,78.10
2024-01-24T22:42:34.463Z,78.20
2024-01-24T22:45:02.836Z,78.30
2024-01-24T22:47:31.192Z,78.28
2024-01-24T22:49:59.808Z,78.24
2024-01-24T22:52:28.048Z,78.24
2024-01-24T22:54:56.448Z,78.42
2024-01-24T22:57:24.395Z,78.11
2024-01-24T22:59:52.590Z,78.20
2024-01-24T23:02:21.263Z,78.10
2024-01-24T23:04:49.497Z,77.87
2024-01-24T23:07:18.776Z,78.01
2024-01-24T23:09:47.310Z,78.50
2024-01-24T23:12:15.356Z,78.63
2024-01-24T23:14:43.355Z,78.41
2024-01-24T23:17:11.644Z,78.47
2024-01-24T23:19:39.823Z,78.42
2024-01-24T23:22:08.754Z,78.38
2024-01-24T23:24:36.656Z,78.53
2024-01-24T23:27:04.980Z,78.65
2024-01-24T23:29:33.272Z,78.72
2024-01-24T23:32:01.237Z,78.77
2024-01-24T23:34:29.665Z,78.67
2024-01-24T23:36:57.953Z,78.65
2024-01-24T23:39:26.061Z,78.61
2024-01-24T23:41:54.424Z,78.58
2024-01-24T23:44:22.607Z,78.64
2024-01-24T23:46:50.441Z,78.76
2024-01-24T23:49:19.273Z,78.65
2024-01-24T23:51:47.741Z,78.71
2024-01-24T23:54:16.428Z,78.87
2024-01-24T23:56:44.548Z,78.97
2024-01-24T23:59:12.987Z,79.18
